createdAt,value
2019-05-03T00:04:43.770Z,60.20
2019-05-03T00:10:43.778Z,59.00
2019-05-03T00:16:43.696Z,63.20
2019-05-03T00:22:43.640Z,55.20
2019-05-03T00:28:43.689Z,56.30
2019-05-03T00:34:46.262Z,56.80
2019-05-03T00:40:43.666Z,52.90
2019-05-03T00:46:45.783Z,54.50
2019-05-03T00:52:43.712Z,54.60
2019-05-03T00:58:43.756Z,59.50
2019-05-03T01:04:43.670Z,61.80
2019-05-03T01:10:43.642Z,60.30
2019-05-03T01:16:43.775Z,65.10
2019-05-03T01:22:44.129Z,60.70
2019-05-03T01:28:43.713Z,62.90
2019-05-03T01:34:43.694Z,66.20
2019-05-03T01:40:43.672Z,67.40
2019-05-03T01:46:43.815Z,68.70
2019-05-03T01:52:43.670Z,72.40
2019-05-03T01:58:43.693Z,65.00
2019-05-03T02:04:44.278Z,63.20
2019-05-03T02:10:43.792Z,65.00
2019-05-03T02:16:43.669Z,68.40
2019-05-03T02:22:43.765Z,70.80
2019-05-03T02:28:43.732Z,63.10
2019-05-03T02:34:44.252Z,67.80
2019-05-03T02:40:43.762Z,64.40
2019-05-03T02:46:45.421Z,65.30
2019-05-03T02:52:45.776Z,66.30
2019-05-03T02:58:45.883Z,62.40
2019-05-03T03:04:45.393Z,64.40
2019-05-03T03:10:45.536Z,61.80
2019-05-03T03:16:45.470Z,57.00
2019-05-03T03:22:45.661Z,54.50
2019-05-03T03:28:46.148Z,53.50
2019-05-03T03:35:48.909Z,52.20
2019-05-03T03:41:45.732Z,54.90
2019-05-03T03:47:46.477Z,50.30
2019-05-03T03:53:46.500Z,58.00
2019-05-03T03:59:45.899Z,58.40
2019-05-03T04:05:46.720Z,49.90
2019-05-03T04:11:46.324Z,47.60
2019-05-03T04:17:45.848Z,55.30
2019-05-03T04:23:45.895Z,54.10
2019-05-03T04:29:45.798Z,52.80
2019-05-03T04:35:46.862Z,50.00
2019-05-03T04:41:45.894Z,33.70
2019-05-03T04:47:46.544Z,25.50
2019-05-03T04:53:45.854Z,23.20
2019-05-03T04:59:45.859Z,23.00
2019-05-03T05:05:45.846Z,25.30
2019-05-03T05:11:46.100Z,24.70
2019-05-03T05:17:46.089Z,25.30
2019-05-03T05:23:45.792Z,22.90
2019-05-03T05:29:45.936Z,18.90
2019-05-03T05:35:45.810Z,22.40
2019-05-03T05:41:45.875Z,16.80
2019-05-03T05:47:45.819Z,16.20
2019-05-03T05:53:45.923Z,11.90
2019-05-03T05:59:45.933Z,12.50
2019-05-03T06:05:45.850Z,14.20
2019-05-03T06:11:45.851Z,10.80
2019-05-03T06:17:45.880Z,15.80
2019-05-03T06:23:45.834Z,15.60
2019-05-03T06:29:45.963Z,15.10
2019-05-03T06:35:45.863Z,12.10
2019-05-03T06:41:45.859Z,15.50
2019-05-03T06:47:49.779Z,11.60
2019-05-03T06:53:48.984Z,8.40
2019-05-03T06:59:45.901Z,9.60
2019-05-03T07:05:45.938Z,16.00
2019-05-03T07:11:45.862Z,9.10
2019-05-03T07:17:45.872Z,9.00
2019-05-03T07:23:45.909Z,7.80
2019-05-03T07:29:45.931Z,8.10
2019-05-03T07:35:45.899Z,7.50
2019-05-03T07:41:45.950Z,9.10
2019-05-03T07:47:45.909Z,7.10
2019-05-03T07:53:45.989Z,6.60
2019-05-03T07:59:45.876Z,6.40
2019-05-03T08:05:45.918Z,7.00
2019-05-03T08:11:45.917Z,6.90
2019-05-03T08:17:46.921Z,6.80
2019-05-03T08:23:45.943Z,5.80
2019-05-03T08:29:45.945Z,4.70
2019-05-03T08:35:48.897Z,4.70
2019-05-03T08:41:45.921Z,6.10
2019-05-03T08:47:45.920Z,5.90
2019-05-03T08:53:46.101Z,5.70
2019-05-03T08:59:45.984Z,4.70
2019-05-03T09:05:46.413Z,7.60
2019-05-03T09:11:45.925Z,5.40
2019-05-03T09:17:45.962Z,8.10
2019-05-03T09:23:45.950Z,6.10
2019-05-03T09:29:46.250Z,6.20
2019-05-03T09:35:45.960Z,8.10
2019-05-03T09:41:45.989Z,5.60
2019-05-03T09:49:25.936Z,9.60
2019-05-03T09:55:25.942Z,7.40
2019-05-03T10:01:25.927Z,9.80
2019-05-03T10:07:26.056Z,12.10
2019-05-03T10:13:27.163Z,9.40
2019-05-03T10:19:37.065Z,8.20
2019-05-03T10:25:25.943Z,7.60
2019-05-03T10:31:25.997Z,9.40
2019-05-03T15:57:31.199Z,3.10
2019-05-03T16:03:31.055Z,4.10
2019-05-03T16:09:31.026Z,8.00
2019-05-03T16:15:31.072Z,3.80
2019-05-03T16:21:31.101Z,4.30
2019-05-03T16:27:31.241Z,4.60
2019-05-03T16:33:34.765Z,4.00
2019-05-03T16:39:31.169Z,2.80
2019-05-03T16:45:31.177Z,4.40
2019-05-03T16:51:31.171Z,4.00
2019-05-03T16:57:31.123Z,3.90
2019-05-03T17:03:38.698Z,5.00
2019-05-03T17:09:31.114Z,5.50
2019-05-03T17:15:31.092Z,7.70
2019-05-03T17:21:31.071Z,3.10
2019-05-03T17:27:34.011Z,5.70
2019-05-03T17:33:31.112Z,4.40
2019-05-03T17:39:31.115Z,3.90
2019-05-03T17:45:31.104Z,8.70
2019-05-03T17:51:31.121Z,15.10
2019-05-03T17:57:31.138Z,6.20
2019-05-03T18:03:31.142Z,4.20
2019-05-03T18:09:31.118Z,3.40
2019-05-03T18:15:31.111Z,3.80
2019-05-03T18:21:31.106Z,4.70
2019-05-03T18:27:31.482Z,6.90
2019-05-03T18:38:14.648Z,3.80
2019-05-03T18:44:14.777Z,7.60
2019-05-03T18:50:12.797Z,5.70
2019-05-03T18:56:14.757Z,8.80
2019-05-03T19:02:14.794Z,9.10
2019-05-03T19:08:12.832Z,8.80
2019-05-03T19:14:14.884Z,4.50
2019-05-03T19:20:12.816Z,7.00
2019-05-03T19:26:14.445Z,4.60
2019-05-03T19:32:14.836Z,7.70
2019-05-03T19:38:12.837Z,10.20
2019-05-03T19:44:14.991Z,7.60
2019-05-03T19:50:13.196Z,8.30
2019-05-03T19:56:14.653Z,6.70
2019-05-03T20:02:12.834Z,5.30
2019-05-03T20:08:12.871Z,6.80
2019-05-03T20:14:14.751Z,5.40
2019-05-03T20:20:12.877Z,6.70
2019-05-03T20:26:14.884Z,8.20
2019-05-03T20:32:12.863Z,6.50
2019-05-03T20:38:15.106Z,4.90
2019-05-03T20:44:14.392Z,13.10
2019-05-03T20:50:15.310Z,11.20
2019-05-03T20:56:12.857Z,8.70
2019-05-03T21:02:12.844Z,11.70
2019-05-03T21:08:14.703Z,5.70
2019-05-03T21:14:12.862Z,6.80
2019-05-03T21:20:14.782Z,9.50
2019-05-03T21:26:16.260Z,11.50
2019-05-03T21:32:14.698Z,9.30
2019-05-03T21:38:12.973Z,5.70
2019-05-03T21:44:13.003Z,5.70
2019-05-03T21:50:14.599Z,8.00
2019-05-03T21:56:14.375Z,5.70
2019-05-03T22:02:12.899Z,6.60
2019-05-03T22:08:12.916Z,11.00
2019-05-03T22:14:12.956Z,11.10
2019-05-03T22:20:12.978Z,6.40
2019-05-03T22:26:12.912Z,5.80
2019-05-03T22:32:12.953Z,6.90
2019-05-03T22:38:12.952Z,8.60
2019-05-03T22:44:16.750Z,6.50
2019-05-03T22:50:14.769Z,6.00
2019-05-03T22:56:14.466Z,8.40
2019-05-03T23:02:12.947Z,8.00
2019-05-03T23:08:14.713Z,5.60
2019-05-03T23:14:14.863Z,5.20
2019-05-03T23:20:14.930Z,5.20
2019-05-03T23:26:14.736Z,4.80
2019-05-03T23:32:15.025Z,6.90
2019-05-03T23:38:12.953Z,5.10
2019-05-03T23:44:15.043Z,5.40
2019-05-03T23:50:12.933Z,7.40
2019-05-03T23:56:14.977Z,6.20
